createdAt,value
2019-03-12T00:01:01.022Z,90.90
2019-03-12T00:04:06.067Z,90.80
2019-03-12T00:07:11.100Z,91.00
2019-03-12T00:10:16.138Z,91.10
2019-03-12T00:13:21.109Z,91.00
2019-03-12T00:16:26.071Z,90.90
2019-03-12T00:19:31.101Z,90.90
2019-03-12T00:22:36.082Z,90.80
2019-03-12T00:25:41.206Z,91.30
2019-03-12T00:28:46.227Z,91.60
2019-03-12T00:31:51.251Z,92.10
2019-03-12T00:34:56.387Z,92.00
2019-03-12T00:38:01.499Z,92.00
2019-03-12T00:41:06.551Z,92.20
2019-03-12T00:44:11.655Z,92.40
2019-03-12T00:47:16.861Z,93.00
2019-03-12T00:50:21.899Z,93.20
2019-03-12T00:53:26.940Z,93.40
2019-03-12T00:56:31.994Z,93.90
2019-03-12T00:59:37.096Z,93.80
2019-03-12T01:02:42.115Z,93.70
2019-03-12T01:05:47.168Z,93.70
2019-03-12T01:08:52.719Z,93.50
2019-03-12T01:11:58.051Z,93.30
2019-03-12T01:15:03.497Z,93.30
2019-03-12T01:18:08.857Z,93.10
2019-03-12T01:21:14.184Z,93.30
2019-03-12T01:24:19.525Z,93.60
2019-03-12T01:27:24.857Z,93.90
2019-03-12T01:30:30.192Z,94.00
2019-03-12T01:33:35.529Z,94.10
2019-03-12T01:36:40.869Z,94.20
2019-03-12T01:39:46.199Z,94.20
2019-03-12T01:42:52.637Z,94.20
2019-03-12T01:45:58.150Z,94.00
2019-03-12T01:49:03.502Z,93.50
2019-03-12T01:52:08.815Z,93.60
2019-03-12T01:55:15.664Z,93.30
2019-03-12T01:58:21.280Z,93.10
2019-03-12T02:01:26.652Z,93.00
2019-03-12T02:04:31.965Z,93.00
2019-03-12T02:07:37.303Z,93.20
2019-03-12T02:10:42.723Z,93.40
2019-03-12T02:13:48.060Z,93.70
2019-03-12T02:16:53.387Z,94.10
2019-03-12T02:19:58.720Z,94.60
2019-03-12T02:23:04.040Z,95.00
2019-03-12T02:26:09.359Z,95.50
2019-03-12T02:29:14.719Z,95.80
2019-03-12T02:32:20.061Z,96.00
2019-03-12T02:35:25.386Z,96.10
2019-03-12T02:38:30.727Z,96.10
2019-03-12T02:41:36.117Z,96.10
2019-03-12T02:44:41.444Z,96.00
2019-03-12T02:47:46.788Z,95.80
2019-03-12T02:50:52.181Z,95.50
2019-03-12T02:53:57.583Z,95.90
2019-03-12T02:57:02.917Z,95.80
2019-03-12T03:00:14.805Z,96.00
2019-03-12T03:03:20.194Z,96.00
2019-03-12T03:06:33.688Z,96.00
2019-03-12T03:09:39.089Z,96.00
2019-03-12T03:12:44.411Z,95.90
2019-03-12T03:15:49.744Z,95.90
2019-03-12T03:18:55.086Z,95.80
2019-03-12T03:22:00.502Z,96.10
2019-03-12T03:25:06.369Z,95.80
2019-03-12T03:28:11.774Z,95.80
2019-03-12T03:31:17.167Z,95.80
2019-03-12T03:34:27.780Z,95.70
2019-03-12T03:37:29.588Z,95.50
2019-03-12T03:40:34.990Z,95.30
2019-03-12T03:43:40.405Z,95.40
2019-03-12T03:46:45.811Z,95.30
2019-03-12T03:49:51.162Z,95.20
2019-03-12T03:52:56.501Z,95.00
2019-03-12T03:56:01.923Z,94.80
2019-03-12T03:59:07.249Z,94.70
2019-03-12T04:02:16.000Z,94.50
2019-03-12T04:05:21.605Z,94.70
2019-03-12T04:08:27.032Z,94.40
2019-03-12T04:11:32.379Z,94.40
2019-03-12T04:14:37.712Z,94.20
2019-03-12T04:17:43.102Z,94.00
2019-03-12T04:20:48.468Z,94.00
2019-03-12T04:23:53.798Z,94.00
2019-03-12T04:26:59.127Z,93.90
2019-03-12T04:30:04.751Z,93.60
2019-03-12T04:33:41.483Z,93.60
2019-03-12T04:36:48.167Z,93.20
2019-03-12T04:39:53.499Z,92.60
2019-03-12T04:42:58.847Z,92.40
2019-03-12T04:46:04.177Z,91.80
2019-03-12T04:49:09.550Z,91.60
2019-03-12T04:52:14.919Z,91.50
2019-03-12T04:55:20.263Z,91.30
2019-03-12T04:58:26.418Z,91.10
2019-03-12T05:01:31.757Z,91.00
2019-03-12T05:04:37.100Z,91.00
2019-03-12T05:07:42.440Z,90.90
2019-03-12T05:10:47.831Z,91.00
2019-03-12T05:14:27.518Z,90.80
2019-03-12T05:17:34.533Z,90.80
2019-03-12T05:20:39.890Z,90.70
2019-03-12T05:23:45.390Z,90.80
2019-03-12T05:26:51.195Z,90.80
2019-03-12T05:29:56.769Z,90.80
2019-03-12T05:33:02.519Z,90.80
2019-03-12T05:36:07.830Z,90.70
2019-03-12T05:39:13.206Z,90.60
2019-03-12T05:42:18.619Z,90.50
2019-03-12T05:45:24.015Z,90.50
2019-03-12T05:48:29.334Z,90.50
2019-03-12T05:51:34.667Z,90.20
2019-03-12T05:54:39.984Z,90.20
2019-03-12T05:57:45.325Z,90.20
2019-03-12T06:00:50.655Z,89.80
2019-03-12T06:03:56.094Z,89.40
2019-03-12T06:07:01.410Z,89.50
2019-03-12T06:10:06.941Z,89.40
2019-03-12T06:13:12.251Z,89.00
2019-03-12T06:16:17.671Z,88.50
2019-03-12T06:19:23.020Z,88.20
2019-03-12T06:22:28.363Z,87.70
2019-03-12T06:25:33.724Z,87.60
2019-03-12T06:28:39.231Z,87.40
2019-03-12T06:32:03.636Z,87.50
2019-03-12T06:35:19.871Z,87.30
2019-03-12T06:38:31.754Z,87.50
2019-03-12T06:41:48.143Z,87.20
2019-03-12T06:45:13.562Z,87.30
2019-03-12T06:48:37.621Z,86.60
2019-03-12T06:52:04.911Z,86.30
2019-03-12T06:55:26.307Z,86.30
2019-03-12T06:58:50.603Z,86.40
2019-03-12T07:02:14.023Z,86.10
2019-03-12T07:05:38.418Z,86.50
2019-03-12T07:09:02.718Z,86.70
2019-03-12T07:12:13.316Z,87.00
2019-03-12T07:15:28.039Z,87.10
2019-03-12T07:19:04.446Z,87.40
2019-03-12T07:22:15.303Z,87.80
2019-03-12T07:25:33.031Z,88.30
2019-03-12T07:28:50.098Z,88.60
2019-03-12T07:32:02.787Z,88.70
2019-03-12T07:35:33.275Z,88.90
2019-03-12T07:38:47.340Z,88.80
2019-03-12T07:42:00.276Z,88.70
2019-03-12T07:45:28.411Z,88.40
2019-03-12T07:49:01.963Z,88.60
2019-03-12T07:52:24.238Z,88.80
2019-03-12T07:55:47.044Z,88.50
2019-03-12T07:59:09.217Z,87.90
2019-03-12T08:02:33.655Z,87.50
2019-03-12T08:06:03.738Z,87.40
2019-03-12T08:09:17.472Z,87.50
2019-03-12T08:12:34.406Z,87.60
2019-03-12T08:15:58.582Z,87.50
2019-03-12T08:19:22.859Z,86.50
2019-03-12T08:22:49.901Z,85.90
2019-03-12T08:26:14.183Z,85.50
2019-03-12T08:29:37.340Z,85.90
2019-03-12T08:33:00.509Z,85.90
2019-03-12T08:36:23.707Z,85.10
2019-03-12T08:39:41.529Z,84.80
2019-03-12T08:43:04.424Z,84.30
2019-03-12T08:46:34.565Z,84.50
2019-03-12T08:50:04.816Z,83.70
2019-03-12T08:53:47.488Z,83.00
2019-03-12T08:57:16.359Z,83.10
2019-03-12T09:00:46.603Z,82.00
2019-03-12T09:04:09.508Z,81.60
2019-03-12T09:07:45.944Z,81.40
2019-03-12T09:11:07.363Z,80.50
2019-03-12T09:14:21.076Z,78.00
2019-03-12T09:18:00.583Z,78.10
2019-03-12T09:21:27.649Z,78.20
2019-03-12T09:24:42.250Z,76.60
2019-03-12T09:28:12.859Z,76.60
2019-03-12T09:31:32.864Z,76.20
2019-03-12T09:35:02.085Z,75.80
2019-03-12T09:38:24.968Z,73.90
2019-03-12T09:41:47.164Z,73.40
2019-03-12T09:45:00.209Z,71.70
2019-03-12T09:48:30.404Z,71.00
2019-03-12T09:52:09.769Z,70.20
2019-03-12T09:55:34.054Z,71.80
2019-03-12T09:58:51.681Z,71.10
2019-03-12T10:02:09.847Z,70.60
2019-03-12T10:05:37.364Z,69.90
2019-03-12T10:09:04.688Z,68.10
2019-03-12T10:12:17.596Z,63.70
2019-03-12T10:15:57.126Z,63.50
2019-03-12T10:19:22.453Z,63.40
2019-03-12T10:22:57.102Z,62.20
2019-03-12T10:26:10.202Z,61.10
2019-03-12T10:29:37.243Z,59.80
2019-03-12T10:33:01.149Z,59.00
2019-03-12T10:36:30.856Z,58.80
2019-03-12T10:40:05.595Z,59.00
2019-03-12T10:43:29.883Z,58.80
2019-03-12T10:46:40.372Z,58.20
2019-03-12T10:49:45.760Z,58.70
2019-03-12T10:52:51.074Z,57.10
2019-03-12T10:55:56.393Z,57.50
2019-03-12T10:59:01.738Z,56.90
2019-03-12T11:02:07.264Z,56.80
2019-03-12T11:05:12.594Z,57.40
2019-03-12T11:08:17.951Z,56.20
2019-03-12T11:11:23.292Z,56.20
2019-03-12T11:14:28.645Z,55.90
2019-03-12T11:17:34.004Z,55.30
2019-03-12T11:20:39.331Z,54.50
2019-03-12T11:23:44.731Z,55.40
2019-03-12T11:26:50.046Z,55.50
2019-03-12T11:29:55.375Z,55.00
2019-03-12T11:33:00.695Z,55.40
2019-03-12T11:36:06.067Z,56.10
2019-03-12T11:39:11.501Z,56.30
2019-03-12T11:42:16.882Z,56.50
2019-03-12T11:45:34.818Z,56.00
2019-03-12T11:48:29.247Z,56.40
2019-03-12T11:51:34.657Z,56.00
2019-03-12T11:54:40.053Z,55.30
2019-03-12T11:57:45.368Z,54.90
2019-03-12T12:01:02.526Z,54.60
2019-03-12T12:04:08.063Z,54.80
2019-03-12T12:07:13.405Z,55.00
2019-03-12T12:10:18.931Z,55.00
2019-03-12T12:13:24.303Z,55.20
2019-03-12T12:16:29.624Z,54.70
2019-03-12T12:19:34.931Z,54.10
2019-03-12T12:22:40.268Z,52.70
2019-03-12T12:25:45.600Z,51.70
2019-03-12T12:28:50.995Z,52.10
2019-03-12T12:31:56.334Z,52.10
2019-03-12T12:35:01.668Z,51.50
2019-03-12T12:38:06.971Z,51.20
2019-03-12T12:41:12.300Z,50.90
2019-03-12T12:44:17.636Z,50.50
2019-03-12T12:47:22.957Z,49.30
2019-03-12T12:50:28.283Z,49.80
2019-03-12T12:53:33.619Z,49.40
2019-03-12T12:56:38.930Z,48.90
2019-03-12T12:59:44.281Z,49.20
2019-03-12T13:02:49.595Z,50.00
2019-03-12T13:05:55.750Z,48.80
2019-03-12T13:09:01.228Z,47.30
2019-03-12T13:12:06.551Z,47.50
2019-03-12T13:15:12.018Z,47.80
2019-03-12T13:18:17.366Z,47.90
2019-03-12T13:21:22.671Z,47.30
2019-03-12T13:24:27.996Z,48.20
2019-03-12T13:27:42.056Z,47.40
2019-03-12T13:30:41.860Z,47.20
2019-03-12T13:33:47.249Z,47.10
2019-03-12T13:36:53.002Z,46.50
2019-03-12T13:39:58.398Z,46.30
2019-03-12T13:43:04.918Z,45.60
2019-03-12T13:46:10.275Z,45.70
2019-03-12T13:49:15.670Z,46.10
2019-03-12T13:52:21.057Z,46.40
2019-03-12T13:55:26.526Z,46.10
2019-03-12T13:58:31.883Z,45.40
2019-03-12T14:01:37.204Z,45.00
2019-03-12T14:04:42.526Z,44.50
2019-03-12T14:07:48.950Z,44.70
2019-03-12T14:10:54.327Z,44.60
2019-03-12T14:13:59.655Z,43.60
2019-03-12T14:17:08.408Z,43.00
2019-03-12T14:20:39.611Z,42.70
2019-03-12T14:24:03.710Z,43.00
2019-03-12T14:27:09.177Z,43.10
2019-03-12T14:30:14.556Z,43.10
2019-03-12T14:33:20.008Z,42.90
2019-03-12T14:36:25.406Z,43.40
2019-03-12T14:39:30.730Z,43.10
2019-03-12T14:42:36.054Z,43.30
2019-03-12T14:45:46.795Z,43.60
2019-03-12T14:48:54.136Z,43.50
2019-03-12T14:52:12.784Z,43.40
2019-03-12T14:55:18.119Z,43.90
2019-03-12T14:58:23.464Z,43.60
2019-03-12T15:01:28.826Z,43.70
2019-03-12T15:04:34.151Z,43.70
2019-03-12T15:07:39.475Z,43.90
2019-03-12T15:10:44.811Z,44.10
2019-03-12T15:13:50.163Z,43.70
2019-03-12T15:16:55.530Z,43.40
2019-03-12T15:20:00.891Z,43.10
2019-03-12T15:23:06.319Z,43.10
2019-03-12T15:26:11.651Z,43.00
2019-03-12T15:29:17.173Z,43.30
2019-03-12T15:32:22.559Z,43.20
2019-03-12T15:35:27.946Z,43.20
2019-03-12T15:38:33.295Z,43.40
2019-03-12T15:41:38.640Z,43.40
2019-03-12T15:44:44.046Z,43.40
2019-03-12T15:47:49.438Z,43.40
2019-03-12T15:50:55.008Z,43.40
2019-03-12T15:54:00.384Z,42.70
2019-03-12T15:57:06.105Z,43.20
2019-03-12T16:00:11.476Z,43.20
2019-03-12T16:03:16.809Z,43.20
2019-03-12T16:06:22.279Z,42.90
2019-03-12T16:09:27.729Z,42.20
2019-03-12T16:12:33.167Z,42.00
2019-03-12T16:15:38.510Z,42.00
2019-03-12T16:18:43.995Z,42.10
2019-03-12T16:21:49.548Z,41.80
2019-03-12T16:24:54.870Z,41.20
2019-03-12T16:28:00.213Z,41.40
2019-03-12T16:31:05.568Z,41.00
2019-03-12T16:34:10.889Z,42.10
2019-03-12T16:37:26.931Z,42.20
2019-03-12T16:40:32.236Z,42.40
2019-03-12T16:43:37.560Z,42.60
2019-03-12T16:46:42.882Z,42.80
2019-03-12T16:49:48.195Z,43.00
2019-03-12T16:52:53.525Z,43.30
2019-03-12T16:55:58.836Z,43.30
2019-03-12T16:59:04.178Z,43.40
2019-03-12T17:02:09.495Z,43.30
2019-03-12T17:05:15.260Z,43.40
2019-03-12T17:08:20.614Z,43.60
2019-03-12T17:11:25.974Z,44.00
2019-03-12T17:14:38.752Z,44.20
2019-03-12T17:17:38.379Z,44.60
2019-03-12T17:20:43.703Z,44.60
2019-03-12T17:23:49.239Z,44.90
2019-03-12T17:26:54.571Z,45.10
2019-03-12T17:29:59.907Z,45.40
2019-03-12T17:33:06.712Z,45.60
2019-03-12T17:36:12.457Z,45.80
2019-03-12T17:39:17.823Z,46.00
2019-03-12T17:42:23.275Z,46.10
2019-03-12T17:45:28.675Z,46.20
2019-03-12T17:48:34.091Z,46.30
2019-03-12T17:51:39.443Z,46.60
2019-03-12T17:54:44.865Z,46.60
2019-03-12T17:57:50.902Z,46.60
2019-03-12T18:00:56.690Z,46.60
2019-03-12T18:04:02.070Z,46.60
2019-03-12T18:07:07.451Z,46.60
2019-03-12T18:10:13.300Z,46.70
2019-03-12T18:13:18.700Z,46.70
2019-03-12T18:16:24.184Z,46.60
2019-03-12T18:19:29.664Z,46.70
2019-03-12T18:22:38.677Z,46.70
2019-03-12T18:25:42.209Z,46.70
2019-03-12T18:28:47.567Z,46.70
2019-03-12T18:31:52.979Z,46.50
2019-03-12T18:34:58.307Z,46.40
2019-03-12T18:38:03.770Z,46.60
2019-03-12T18:41:09.139Z,46.40
2019-03-12T18:44:14.457Z,46.50
2019-03-12T18:47:19.844Z,46.50
2019-03-12T18:50:25.302Z,47.20
2019-03-12T18:53:30.740Z,46.60
2019-03-12T18:56:36.123Z,46.50
2019-03-12T18:59:41.499Z,46.70
2019-03-12T19:02:46.927Z,46.70
2019-03-12T19:05:52.364Z,46.80
2019-03-12T19:08:57.790Z,46.80
2019-03-12T19:12:03.118Z,46.70
2019-03-12T19:15:08.838Z,46.70
2019-03-12T19:18:14.147Z,46.60
2019-03-12T19:21:19.478Z,46.70
2019-03-12T19:24:24.803Z,46.80
2019-03-12T19:27:30.137Z,47.10
2019-03-12T19:30:35.490Z,47.10
2019-03-12T19:33:40.799Z,47.30
2019-03-12T19:36:46.135Z,47.60
2019-03-12T19:39:51.675Z,47.80
2019-03-12T19:42:57.168Z,47.80
2019-03-12T19:46:02.488Z,47.90
2019-03-12T19:49:07.819Z,47.90
2019-03-12T19:52:13.155Z,47.90
2019-03-12T19:55:20.606Z,48.00
2019-03-12T19:58:28.368Z,47.70
2019-03-12T20:01:34.682Z,47.60
2019-03-12T20:04:47.052Z,47.40
2019-03-12T20:07:47.026Z,47.20
2019-03-12T20:11:29.271Z,46.90
2019-03-12T20:15:26.896Z,46.40
2019-03-12T20:19:21.324Z,46.50
2019-03-12T20:22:59.999Z,46.40
2019-03-12T20:27:00.527Z,46.20
2019-03-12T20:30:45.043Z,45.70
2019-03-12T20:34:42.516Z,45.50
2019-03-12T20:38:40.336Z,45.70
2019-03-12T20:43:01.036Z,45.40
2019-03-12T20:47:00.065Z,45.40
2019-03-12T20:50:57.795Z,45.20
2019-03-12T20:55:08.454Z,45.10
2019-03-12T20:58:56.354Z,44.60
2019-03-12T21:02:30.143Z,44.60
2019-03-12T21:06:27.713Z,44.30
2019-03-12T21:10:26.359Z,44.20
2019-03-12T21:14:17.882Z,44.30
2019-03-12T21:18:24.444Z,44.10
2019-03-12T21:22:13.635Z,44.10
2019-03-12T21:26:05.394Z,43.90
2019-03-12T21:29:47.457Z,43.70
2019-03-12T21:32:52.790Z,43.30
2019-03-12T21:35:58.119Z,43.20
2019-03-12T21:39:04.666Z,42.90
2019-03-12T21:42:10.009Z,42.60
2019-03-12T21:45:15.447Z,42.60
2019-03-12T21:48:20.808Z,42.60
2019-03-12T21:51:26.143Z,42.80
2019-03-12T21:54:31.399Z,43.10
2019-03-12T21:57:36.552Z,43.20
2019-03-12T22:00:41.604Z,43.50
2019-03-12T22:03:46.629Z,43.60
2019-03-12T22:06:51.838Z,43.60
2019-03-12T22:09:56.951Z,43.80
2019-03-12T22:13:02.131Z,43.70
2019-03-12T22:16:07.290Z,43.70
2019-03-12T22:19:12.401Z,44.00
2019-03-12T22:22:35.570Z,44.10
2019-03-12T22:25:40.679Z,44.40
2019-03-12T22:28:45.800Z,44.60
2019-03-12T22:31:50.855Z,44.80
2019-03-12T22:34:55.908Z,44.90
2019-03-12T22:38:01.024Z,45.10
2019-03-12T22:41:06.044Z,45.20
2019-03-12T22:44:11.233Z,45.30
2019-03-12T22:47:16.351Z,45.50
2019-03-12T22:50:21.530Z,45.60
2019-03-12T22:53:26.639Z,45.60
2019-03-12T22:56:31.807Z,45.70
2019-03-12T22:59:36.836Z,45.90
2019-03-12T23:02:42.044Z,46.00
2019-03-12T23:05:47.142Z,46.10
2019-03-12T23:08:52.238Z,46.20
2019-03-12T23:11:57.433Z,46.20
2019-03-12T23:15:02.611Z,46.10
2019-03-12T23:18:07.631Z,46.20
2019-03-12T23:21:12.737Z,46.20
2019-03-12T23:24:17.765Z,46.00
2019-03-12T23:27:22.967Z,46.10
2019-03-12T23:30:28.899Z,46.00
2019-03-12T23:33:34.276Z,46.00
2019-03-12T23:36:39.324Z,46.00
2019-03-12T23:39:44.350Z,46.00
2019-03-12T23:42:49.619Z,46.20
2019-03-12T23:45:54.804Z,46.20
2019-03-12T23:48:59.926Z,46.40
2019-03-12T23:52:05.139Z,46.50
2019-03-12T23:55:11.028Z,46.50
2019-03-12T23:58:19.322Z,46.50
